Αρχική σελίδα
METAR-TAF:

METAR-TAF

Αεροδρόμια :

Audubon County Airport

Audubon, Αϊόβα, Ηνωμένες Πολιτείες Αμερικής

γεωγραφικό πλάτος: 41-42-04N, γεωγραφικό μήκος: 094-55-13W, υψόμετρο: 392 μ

Παρών καιρός

Η αναφορά έγινε 12 λεπτά πριν, στις 01:55 UTC
Ήπιος άνεμος
Θερμοκρασία 6°C
Υγρασία 81%
Πίεση 1017 hPa
Ορατότητα: 16.1 χλμ
Καθαρός ουρανός

METAR: KADU 220155Z AUTO 00000KT 10SM CLR 06/03 A3002 RMK AO2

Χρόνος: 21:07 (02:07 UTC)


TAF: λείπει

Μετεωρολογικές αναφορές και προγνώσεις για περισσότερα από 4000 αεροδρόμια (δελτία METAR και TAF).

Οι διαθέσιμοι σταθμοί απεικονίζονται στο χάρτη με κίτρινες και κόκκινες κουκκίδες.

Μετακινήστε το ποντίκι πάνω από τις κουκκίδες για να δείτε το όνομα του σταθμού.

Στη συνέχεια, κάντε κλικ για να δείτε τις μετεωρολογικές αναφορές και τις προγνώσεις καιρού.

Για να αλλάξετε το χάρτη: κάντε κλικ στα πράσινα κουμπιά με τον μαύρο σταυρό για να ζουμάρετε, στο πράσινο κουμπί με την παύλα για να αφαιρέσετε το ζουμ ή στα πράσινα βέλη για να αντιπαραβάλλετε χάρτες.


METAR-TAF: